sensor_id;sensor_type;location;lat;lon;timestamp;pressure;altitude;pressure_sealevel;temperature;humidity
54144;BME280;40050;47.324;18.792;2023-04-21T00:00:45;1003.12;;;13.54;57.33
54144;BME280;40050;47.324;18.792;2023-04-21T00:02:46;1003.12;;;13.52;57.40
54144;BME280;40050;47.324;18.792;2023-04-21T00:04:47;1003.12;;;13.50;57.48
54144;BME280;40050;47.324;18.792;2023-04-21T00:06:48;1003.08;;;13.44;57.51
54144;BME280;40050;47.324;18.792;2023-04-21T00:08:49;1003.04;;;13.46;57.56
54144;BME280;40050;47.324;18.792;2023-04-21T00:10:50;1003.04;;;13.42;57.59
54144;BME280;40050;47.324;18.792;2023-04-21T00:12:51;1003.07;;;13.41;57.53
54144;BME280;40050;47.324;18.792;2023-04-21T00:14:52;1003.02;;;13.39;57.47
54144;BME280;40050;47.324;18.792;2023-04-21T00:16:53;1003.01;;;13.36;57.46
54144;BME280;40050;47.324;18.792;2023-04-21T00:18:54;1002.99;;;13.37;57.59
54144;BME280;40050;47.324;18.792;2023-04-21T00:20:55;1003.11;;;13.36;57.60
54144;BME280;40050;47.324;18.792;2023-04-21T00:22:56;1003.09;;;13.36;57.69
54144;BME280;40050;47.324;18.792;2023-04-21T00:24:57;1003.06;;;13.34;57.78
54144;BME280;40050;47.324;18.792;2023-04-21T00:26:57;1003.09;;;13.33;57.84
54144;BME280;40050;47.324;18.792;2023-04-21T00:28:58;1003.06;;;13.30;57.96
54144;BME280;40050;47.324;18.792;2023-04-21T00:30:59;1002.99;;;13.27;57.95
54144;BME280;40050;47.324;18.792;2023-04-21T00:33:00;1002.99;;;13.27;58.16
54144;BME280;40050;47.324;18.792;2023-04-21T00:35:01;1003.03;;;13.26;58.19
54144;BME280;40050;47.324;18.792;2023-04-21T00:37:02;1003.01;;;13.26;58.09
54144;BME280;40050;47.324;18.792;2023-04-21T00:39:03;1003.02;;;13.28;58.00
54144;BME280;40050;47.324;18.792;2023-04-21T00:41:04;1003.05;;;13.32;57.86
54144;BME280;40050;47.324;18.792;2023-04-21T00:43:05;1003.06;;;13.31;57.72
54144;BME280;40050;47.324;18.792;2023-04-21T00:45:06;1003.04;;;13.31;57.65
54144;BME280;40050;47.324;18.792;2023-04-21T00:47:07;1002.99;;;13.28;57.57
54144;BME280;40050;47.324;18.792;2023-04-21T00:49:08;1003.00;;;13.27;57.63
54144;BME280;40050;47.324;18.792;2023-04-21T00:51:09;1002.94;;;13.25;57.68
54144;BME280;40050;47.324;18.792;2023-04-21T00:53:10;1002.96;;;13.22;57.57
54144;BME280;40050;47.324;18.792;2023-04-21T00:55:12;1002.81;;;13.16;57.20
54144;BME280;40050;47.324;18.792;2023-04-21T00:57:13;1002.98;;;13.22;57.03
54144;BME280;40050;47.324;18.792;2023-04-21T00:59:14;1002.93;;;13.20;56.97
54144;BME280;40050;47.324;18.792;2023-04-21T01:01:15;1002.96;;;13.19;56.61
54144;BME280;40050;47.324;18.792;2023-04-21T01:03:16;1002.94;;;13.19;56.32
54144;BME280;40050;47.324;18.792;2023-04-21T01:05:17;1002.94;;;13.19;56.34
54144;BME280;40050;47.324;18.792;2023-04-21T01:07:18;1002.91;;;13.19;56.43
54144;BME280;40050;47.324;18.792;2023-04-21T01:09:20;1002.95;;;13.19;56.48
54144;BME280;40050;47.324;18.792;2023-04-21T01:11:21;1002.92;;;13.19;56.65
54144;BME280;40050;47.324;18.792;2023-04-21T01:13:22;1002.94;;;13.19;56.44
54144;BME280;40050;47.324;18.792;2023-04-21T01:15:23;1002.89;;;13.15;56.56
54144;BME280;40050;47.324;18.792;2023-04-21T01:17:23;1002.91;;;13.11;56.74
54144;BME280;40050;47.324;18.792;2023-04-21T01:19:25;1002.90;;;13.10;56.69
54144;BME280;40050;47.324;18.792;2023-04-21T01:21:28;1002.91;;;13.08;56.79
54144;BME280;40050;47.324;18.792;2023-04-21T01:23:29;1002.88;;;13.04;56.77
54144;BME280;40050;47.324;18.792;2023-04-21T01:25:30;1002.91;;;13.02;56.79
54144;BME280;40050;47.324;18.792;2023-04-21T01:27:31;1002.93;;;12.99;56.71
54144;BME280;40050;47.324;18.792;2023-04-21T01:29:32;1002.89;;;12.95;56.47
54144;BME280;40050;47.324;18.792;2023-04-21T01:31:36;1002.90;;;12.91;56.30
54144;BME280;40050;47.324;18.792;2023-04-21T01:33:37;1002.82;;;12.81;56.16
54144;BME280;40050;47.324;18.792;2023-04-21T01:35:38;1002.75;;;12.69;56.18
54144;BME280;40050;47.324;18.792;2023-04-21T01:37:39;1002.84;;;12.68;56.25
54144;BME280;40050;47.324;18.792;2023-04-21T01:39:41;1002.83;;;12.67;56.25
54144;BME280;40050;47.324;18.792;2023-04-21T01:41:42;1002.87;;;12.65;56.24
54144;BME280;40050;47.324;18.792;2023-04-21T01:43:43;1002.84;;;12.63;56.21
54144;BME280;40050;47.324;18.792;2023-04-21T01:45:44;1002.81;;;12.60;56.06
54144;BME280;40050;47.324;18.792;2023-04-21T01:47:46;1002.85;;;12.61;55.83
54144;BME280;40050;47.324;18.792;2023-04-21T01:49:47;1002.84;;;12.60;55.86
54144;BME280;40050;47.324;18.792;2023-04-21T01:51:48;1002.84;;;12.56;55.81
54144;BME280;40050;47.324;18.792;2023-04-21T01:53:49;1002.86;;;12.55;55.83
54144;BME280;40050;47.324;18.792;2023-04-21T01:55:49;1002.83;;;12.49;55.77
54144;BME280;40050;47.324;18.792;2023-04-21T01:57:53;1002.86;;;12.46;55.70
54144;BME280;40050;47.324;18.792;2023-04-21T01:59:54;1002.89;;;12.40;55.75
54144;BME280;40050;47.324;18.792;2023-04-21T02:01:55;1002.78;;;12.28;56.07
54144;BME280;40050;47.324;18.792;2023-04-21T02:03:56;1002.92;;;12.34;56.21
54144;BME280;40050;47.324;18.792;2023-04-21T02:05:57;1002.91;;;12.29;56.14
54144;BME280;40050;47.324;18.792;2023-04-21T02:07:58;1002.94;;;12.26;56.03
54144;BME280;40050;47.324;18.792;2023-04-21T02:09:59;1002.62;;;12.03;56.02
54144;BME280;40050;47.324;18.792;2023-04-21T02:12:00;1002.96;;;12.19;56.27
54144;BME280;40050;47.324;18.792;2023-04-21T02:14:01;1002.92;;;12.17;56.54
54144;BME280;40050;47.324;18.792;2023-04-21T02:16:02;1002.86;;;12.10;56.67
54144;BME280;40050;47.324;18.792;2023-04-21T02:18:03;1003.00;;;12.10;56.90
54144;BME280;40050;47.324;18.792;2023-04-21T02:20:04;1002.98;;;12.06;57.04
54144;BME280;40050;47.324;18.792;2023-04-21T02:22:06;1002.96;;;12.02;57.18
54144;BME280;40050;47.324;18.792;2023-04-21T02:24:06;1002.93;;;11.98;57.34
54144;BME280;40050;47.324;18.792;2023-04-21T02:26:07;1002.95;;;11.96;57.42
54144;BME280;40050;47.324;18.792;2023-04-21T02:28:08;1002.91;;;11.91;57.60
54144;BME280;40050;47.324;18.792;2023-04-21T02:30:09;1003.00;;;11.89;57.60
54144;BME280;40050;47.324;18.792;2023-04-21T02:32:10;1002.91;;;11.84;57.61
54144;BME280;40050;47.324;18.792;2023-04-21T02:34:11;1002.90;;;11.78;57.55
54144;BME280;40050;47.324;18.792;2023-04-21T02:36:12;1002.89;;;11.72;57.25
54144;BME280;40050;47.324;18.792;2023-04-21T02:38:13;1002.89;;;11.68;57.10
54144;BME280;40050;47.324;18.792;2023-04-21T02:40:14;1002.88;;;11.66;57.12
54144;BME280;40050;47.324;18.792;2023-04-21T02:42:15;1002.87;;;11.66;57.17
54144;BME280;40050;47.324;18.792;2023-04-21T02:44:16;1002.92;;;11.67;57.11
54144;BME280;40050;47.324;18.792;2023-04-21T02:46:53;1002.90;;;11.67;57.02
54144;BME280;40050;47.324;18.792;2023-04-21T02:48:55;1002.90;;;11.63;57.10
54144;BME280;40050;47.324;18.792;2023-04-21T02:50:55;1002.90;;;11.64;57.16
54144;BME280;40050;47.324;18.792;2023-04-21T02:52:56;1002.85;;;11.61;57.02
54144;BME280;40050;47.324;18.792;2023-04-21T02:54:57;1002.91;;;11.65;57.00
54144;BME280;40050;47.324;18.792;2023-04-21T02:56:58;1002.92;;;11.67;57.11
54144;BME280;40050;47.324;18.792;2023-04-21T02:58:59;1002.94;;;11.70;57.01
54144;BME280;40050;47.324;18.792;2023-04-21T03:01:00;1002.99;;;11.70;57.09
54144;BME280;40050;47.324;18.792;2023-04-21T03:03:01;1002.93;;;11.68;57.35
54144;BME280;40050;47.324;18.792;2023-04-21T03:05:02;1002.96;;;11.69;57.28
54144;BME280;40050;47.324;18.792;2023-04-21T03:07:03;1002.98;;;11.68;57.13
54144;BME280;40050;47.324;18.792;2023-04-21T03:09:04;1002.87;;;11.61;57.08
54144;BME280;40050;47.324;18.792;2023-04-21T03:11:05;1002.91;;;11.65;57.09
54144;BME280;40050;47.324;18.792;2023-04-21T03:13:06;1002.82;;;11.59;56.93
54144;BME280;40050;47.324;18.792;2023-04-21T03:15:07;1002.92;;;11.65;56.97
54144;BME280;40050;47.324;18.792;2023-04-21T03:17:08;1002.97;;;11.63;56.88
54144;BME280;40050;47.324;18.792;2023-04-21T03:19:09;1002.97;;;11.61;56.91
54144;BME280;40050;47.324;18.792;2023-04-21T03:21:10;1002.93;;;11.58;56.82
54144;BME280;40050;47.324;18.792;2023-04-21T03:23:11;1002.93;;;11.57;56.71
54144;BME280;40050;47.324;18.792;2023-04-21T03:25:12;1002.88;;;11.55;56.77
54144;BME280;40050;47.324;18.792;2023-04-21T03:27:12;1002.96;;;11.54;56.82
54144;BME280;40050;47.324;18.792;2023-04-21T03:29:13;1002.91;;;11.50;56.92
54144;BME280;40050;47.324;18.792;2023-04-21T03:31:14;1002.94;;;11.50;56.83
54144;BME280;40050;47.324;18.792;2023-04-21T03:33:15;1003.00;;;11.47;56.88
54144;BME280;40050;47.324;18.792;2023-04-21T03:35:16;1003.00;;;11.43;56.80
54144;BME280;40050;47.324;18.792;2023-04-21T03:37:17;1002.98;;;11.35;56.92
54144;BME280;40050;47.324;18.792;2023-04-21T03:39:18;1003.02;;;11.33;57.14
54144;BME280;40050;47.324;18.792;2023-04-21T03:41:19;1002.97;;;11.28;57.34
54144;BME280;40050;47.324;18.792;2023-04-21T03:43:20;1003.06;;;11.31;57.54
54144;BME280;40050;47.324;18.792;2023-04-21T03:45:21;1003.01;;;11.27;57.55
54144;BME280;40050;47.324;18.792;2023-04-21T03:47:22;1003.02;;;11.24;57.63
54144;BME280;40050;47.324;18.792;2023-04-21T03:49:23;1003.12;;;11.23;57.59
54144;BME280;40050;47.324;18.792;2023-04-21T03:51:24;1003.13;;;11.21;57.54
54144;BME280;40050;47.324;18.792;2023-04-21T03:53:24;1003.12;;;11.19;57.55
54144;BME280;40050;47.324;18.792;2023-04-21T03:55:25;1003.23;;;11.21;57.85
54144;BME280;40050;47.324;18.792;2023-04-21T03:57:26;1003.19;;;11.19;57.76
54144;BME280;40050;47.324;18.792;2023-04-21T03:59:27;1002.92;;;10.95;57.63
54144;BME280;40050;47.324;18.792;2023-04-21T04:01:28;1003.25;;;11.13;57.65
54144;BME280;40050;47.324;18.792;2023-04-21T04:03:29;1003.25;;;11.10;57.76
54144;BME280;40050;47.324;18.792;2023-04-21T04:05:30;1003.26;;;11.09;57.81
54144;BME280;40050;47.324;18.792;2023-04-21T04:07:31;1003.25;;;11.08;58.00
54144;BME280;40050;47.324;18.792;2023-04-21T04:09:32;1003.29;;;11.10;58.06
54144;BME280;40050;47.324;18.792;2023-04-21T04:11:33;1003.28;;;11.06;58.05
54144;BME280;40050;47.324;18.792;2023-04-21T04:13:34;1003.30;;;11.06;58.07
54144;BME280;40050;47.324;18.792;2023-04-21T04:15:35;1003.35;;;11.06;58.48
54144;BME280;40050;47.324;18.792;2023-04-21T04:17:36;1003.33;;;11.06;58.39
54144;BME280;40050;47.324;18.792;2023-04-21T04:19:37;1003.38;;;11.05;58.54
54144;BME280;40050;47.324;18.792;2023-04-21T04:21:38;1003.36;;;11.01;58.57
54144;BME280;40050;47.324;18.792;2023-04-21T04:23:39;1003.40;;;10.97;58.43
54144;BME280;40050;47.324;18.792;2023-04-21T04:25:40;1003.48;;;11.00;58.69
54144;BME280;40050;47.324;18.792;2023-04-21T04:27:41;1003.45;;;10.96;58.72
54144;BME280;40050;47.324;18.792;2023-04-21T04:29:42;1003.51;;;10.99;58.83
54144;BME280;40050;47.324;18.792;2023-04-21T04:31:43;1003.55;;;10.97;58.61
54144;BME280;40050;47.324;18.792;2023-04-21T04:33:44;1003.57;;;10.97;58.67
54144;BME280;40050;47.324;18.792;2023-04-21T04:35:45;1003.54;;;10.92;58.68
54144;BME280;40050;47.324;18.792;2023-04-21T04:37:46;1003.56;;;10.90;58.64
54144;BME280;40050;47.324;18.792;2023-04-21T04:39:47;1003.43;;;10.82;58.82
54144;BME280;40050;47.324;18.792;2023-04-21T04:41:48;1003.62;;;10.91;58.96
54144;BME280;40050;47.324;18.792;2023-04-21T04:43:49;1003.56;;;10.91;58.92
54144;BME280;40050;47.324;18.792;2023-04-21T04:45:50;1003.56;;;10.92;59.18
54144;BME280;40050;47.324;18.792;2023-04-21T04:47:51;1003.59;;;10.94;59.25
54144;BME280;40050;47.324;18.792;2023-04-21T04:49:52;1003.61;;;10.97;59.42
54144;BME280;40050;47.324;18.792;2023-04-21T04:51:53;1003.54;;;11.00;59.68
54144;BME280;40050;47.324;18.792;2023-04-21T04:53:54;1003.55;;;11.05;60.01
54144;BME280;40050;47.324;18.792;2023-04-21T04:55:55;1003.57;;;11.10;60.06
54144;BME280;40050;47.324;18.792;2023-04-21T04:57:56;1003.55;;;11.17;60.21
54144;BME280;40050;47.324;18.792;2023-04-21T04:59:57;1003.56;;;11.23;60.12
54144;BME280;40050;47.324;18.792;2023-04-21T05:01:58;1003.56;;;11.26;60.49
54144;BME280;40050;47.324;18.792;2023-04-21T05:03:59;1003.60;;;11.34;60.04
54144;BME280;40050;47.324;18.792;2023-04-21T05:05:59;1003.61;;;11.41;60.28
54144;BME280;40050;47.324;18.792;2023-04-21T05:08:00;1003.59;;;11.48;60.15
54144;BME280;40050;47.324;18.792;2023-04-21T05:10:01;1003.59;;;11.55;60.56
54144;BME280;40050;47.324;18.792;2023-04-21T05:12:02;1003.63;;;11.67;61.24
54144;BME280;40050;47.324;18.792;2023-04-21T05:14:03;1003.63;;;11.74;61.81
54144;BME280;40050;47.324;18.792;2023-04-21T05:16:04;1003.64;;;11.81;62.13
54144;BME280;40050;47.324;18.792;2023-04-21T05:18:05;1003.60;;;11.92;62.70
54144;BME280;40050;47.324;18.792;2023-04-21T05:20:07;1003.66;;;12.02;63.15
54144;BME280;40050;47.324;18.792;2023-04-21T05:22:08;1003.67;;;12.12;63.04
54144;BME280;40050;47.324;18.792;2023-04-21T05:24:08;1003.66;;;12.17;62.80
54144;BME280;40050;47.324;18.792;2023-04-21T05:26:09;1003.70;;;12.28;62.67
54144;BME280;40050;47.324;18.792;2023-04-21T05:28:10;1003.72;;;12.42;62.95
54144;BME280;40050;47.324;18.792;2023-04-21T05:30:11;1003.61;;;12.49;63.45
54144;BME280;40050;47.324;18.792;2023-04-21T05:32:12;1003.68;;;12.67;63.32
54144;BME280;40050;47.324;18.792;2023-04-21T05:34:13;1003.70;;;12.79;62.98
54144;BME280;40050;47.324;18.792;2023-04-21T05:36:14;1003.65;;;12.95;63.28
54144;BME280;40050;47.324;18.792;2023-04-21T05:38:15;1003.69;;;13.09;63.14
54144;BME280;40050;47.324;18.792;2023-04-21T05:40:16;1003.68;;;13.24;63.38
54144;BME280;40050;47.324;18.792;2023-04-21T05:42:17;1003.72;;;13.38;62.22
54144;BME280;40050;47.324;18.792;2023-04-21T05:44:18;1003.66;;;13.53;62.25
54144;BME280;40050;47.324;18.792;2023-04-21T05:46:19;1003.69;;;13.70;62.43
54144;BME280;40050;47.324;18.792;2023-04-21T05:48:20;1003.74;;;13.88;61.72
54144;BME280;40050;47.324;18.792;2023-04-21T05:50:21;1003.64;;;14.05;60.23
54144;BME280;40050;47.324;18.792;2023-04-21T05:52:22;1003.49;;;14.12;59.32
54144;BME280;40050;47.324;18.792;2023-04-21T05:54:23;1003.76;;;14.42;58.75
54144;BME280;40050;47.324;18.792;2023-04-21T05:56:24;1003.68;;;14.61;57.14
54144;BME280;40050;47.324;18.792;2023-04-21T05:58:24;1003.73;;;14.82;56.30
54144;BME280;40050;47.324;18.792;2023-04-21T06:00:25;1003.69;;;14.97;55.89
54144;BME280;40050;47.324;18.792;2023-04-21T06:02:26;1003.69;;;15.17;54.92
54144;BME280;40050;47.324;18.792;2023-04-21T06:04:27;1003.77;;;15.35;54.87
54144;BME280;40050;47.324;18.792;2023-04-21T06:06:28;1003.76;;;15.54;53.83
54144;BME280;40050;47.324;18.792;2023-04-21T06:08:29;1003.80;;;15.77;52.53
54144;BME280;40050;47.324;18.792;2023-04-21T06:10:30;1003.78;;;15.91;50.86
54144;BME280;40050;47.324;18.792;2023-04-21T06:18:47;1003.74;;;16.52;48.71
54144;BME280;40050;47.324;18.792;2023-04-21T06:20:49;1003.79;;;16.67;47.45
54144;BME280;40050;47.324;18.792;2023-04-21T06:22:50;1003.77;;;16.80;47.48
54144;BME280;40050;47.324;18.792;2023-04-21T06:24:51;1003.75;;;16.94;47.32
54144;BME280;40050;47.324;18.792;2023-04-21T06:26:52;1003.77;;;17.11;46.77
54144;BME280;40050;47.324;18.792;2023-04-21T06:28:53;1003.77;;;17.25;46.83
54144;BME280;40050;47.324;18.792;2023-04-21T06:30:54;1003.81;;;17.41;46.85
54144;BME280;40050;47.324;18.792;2023-04-21T06:32:54;1003.78;;;17.54;44.90
54144;BME280;40050;47.324;18.792;2023-04-21T06:34:56;1003.81;;;17.67;43.74
54144;BME280;40050;47.324;18.792;2023-04-21T06:36:56;1003.83;;;17.78;43.99
54144;BME280;40050;47.324;18.792;2023-04-21T06:38:57;1003.75;;;17.90;43.16
54144;BME280;40050;47.324;18.792;2023-04-21T06:40:58;1003.85;;;18.03;44.27
54144;BME280;40050;47.324;18.792;2023-04-21T06:42:59;1003.84;;;18.11;42.14
54144;BME280;40050;47.324;18.792;2023-04-21T06:45:00;1003.85;;;18.19;41.65
54144;BME280;40050;47.324;18.792;2023-04-21T06:47:01;1003.90;;;18.29;41.05
54144;BME280;40050;47.324;18.792;2023-04-21T06:49:02;1003.82;;;18.42;41.57
54144;BME280;40050;47.324;18.792;2023-04-21T06:51:03;1003.85;;;18.55;41.90
54144;BME280;40050;47.324;18.792;2023-04-21T06:53:04;1003.83;;;18.66;41.25
54144;BME280;40050;47.324;18.792;2023-04-21T06:55:05;1003.83;;;18.78;40.49
54144;BME280;40050;47.324;18.792;2023-04-21T06:57:06;1003.78;;;18.83;39.63
54144;BME280;40050;47.324;18.792;2023-04-21T06:59:08;1003.81;;;18.95;39.20
54144;BME280;40050;47.324;18.792;2023-04-21T07:01:09;1003.76;;;19.02;39.79
54144;BME280;40050;47.324;18.792;2023-04-21T07:03:10;1003.75;;;19.10;39.03
54144;BME280;40050;47.324;18.792;2023-04-21T07:05:11;1003.75;;;19.19;39.30
54144;BME280;40050;47.324;18.792;2023-04-21T07:07:12;1003.72;;;19.30;38.88
54144;BME280;40050;47.324;18.792;2023-04-21T07:09:13;1003.72;;;19.41;38.47
54144;BME280;40050;47.324;18.792;2023-04-21T07:11:14;1003.75;;;19.54;37.91
54144;BME280;40050;47.324;18.792;2023-04-21T07:13:14;1003.74;;;19.70;38.11
54144;BME280;40050;47.324;18.792;2023-04-21T07:15:15;1003.71;;;19.79;37.82
54144;BME280;40050;47.324;18.792;2023-04-21T07:17:16;1003.77;;;19.94;37.76
54144;BME280;40050;47.324;18.792;2023-04-21T07:19:17;1003.75;;;20.08;37.30
54144;BME280;40050;47.324;18.792;2023-04-21T07:21:18;1003.73;;;20.22;37.21
54144;BME280;40050;47.324;18.792;2023-04-21T07:23:19;1003.75;;;20.35;36.84
54144;BME280;40050;47.324;18.792;2023-04-21T07:25:20;1003.70;;;20.40;36.64
54144;BME280;40050;47.324;18.792;2023-04-21T07:27:21;1003.73;;;20.46;36.39
54144;BME280;40050;47.324;18.792;2023-04-21T07:29:22;1003.71;;;20.37;35.58
54144;BME280;40050;47.324;18.792;2023-04-21T07:31:23;1003.78;;;20.47;36.82
54144;BME280;40050;47.324;18.792;2023-04-21T07:33:24;1003.76;;;20.62;36.41
54144;BME280;40050;47.324;18.792;2023-04-21T07:35:25;1003.77;;;20.73;36.23
54144;BME280;40050;47.324;18.792;2023-04-21T07:37:26;1003.74;;;20.83;36.86
54144;BME280;40050;47.324;18.792;2023-04-21T07:39:27;1003.77;;;20.98;36.42
54144;BME280;40050;47.324;18.792;2023-04-21T07:41:28;1003.73;;;21.13;35.08
54144;BME280;40050;47.324;18.792;2023-04-21T07:43:28;1003.74;;;21.18;36.39
54144;BME280;40050;47.324;18.792;2023-04-21T07:45:29;1003.68;;;21.34;36.08
54144;BME280;40050;47.324;18.792;2023-04-21T07:47:31;1003.66;;;21.42;35.58
54144;BME280;40050;47.324;18.792;2023-04-21T07:49:32;1003.69;;;21.57;35.85
54144;BME280;40050;47.324;18.792;2023-04-21T07:51:33;1003.78;;;21.67;34.60
54144;BME280;40050;47.324;18.792;2023-04-21T07:53:34;1003.73;;;21.77;34.63
54144;BME280;40050;47.324;18.792;2023-04-21T07:57:46;1003.78;;;21.99;34.48
54144;BME280;40050;47.324;18.792;2023-04-21T07:59:47;1003.74;;;22.06;33.59
54144;BME280;40050;47.324;18.792;2023-04-21T08:01:48;1003.80;;;22.17;33.02
54144;BME280;40050;47.324;18.792;2023-04-21T08:03:49;1003.71;;;22.19;32.99
54144;BME280;40050;47.324;18.792;2023-04-21T08:05:50;1003.77;;;22.23;32.24
54144;BME280;40050;47.324;18.792;2023-04-21T08:07:51;1003.70;;;22.26;32.74
54144;BME280;40050;47.324;18.792;2023-04-21T08:09:52;1003.69;;;22.27;32.37
54144;BME280;40050;47.324;18.792;2023-04-21T08:11:53;1003.65;;;22.37;33.09
54144;BME280;40050;47.324;18.792;2023-04-21T08:13:53;1003.72;;;22.45;33.09
54144;BME280;40050;47.324;18.792;2023-04-21T08:15:54;1003.68;;;22.55;32.06
54144;BME280;40050;47.324;18.792;2023-04-21T08:17:55;1003.73;;;22.62;32.98
54144;BME280;40050;47.324;18.792;2023-04-21T08:20:00;1003.70;;;22.78;32.44
54144;BME280;40050;47.324;18.792;2023-04-21T08:22:03;1003.54;;;22.77;32.89
54144;BME280;40050;47.324;18.792;2023-04-21T08:24:04;1003.64;;;22.90;32.92
54144;BME280;40050;47.324;18.792;2023-04-21T08:26:05;1003.72;;;23.04;32.36
54144;BME280;40050;47.324;18.792;2023-04-21T08:28:06;1003.70;;;23.12;31.65
54144;BME280;40050;47.324;18.792;2023-04-21T08:30:07;1003.71;;;23.21;32.06
54144;BME280;40050;47.324;18.792;2023-04-21T08:32:08;1003.66;;;23.30;30.92
54144;BME280;40050;47.324;18.792;2023-04-21T08:34:09;1003.65;;;23.34;31.12
54144;BME280;40050;47.324;18.792;2023-04-21T08:36:10;1003.70;;;23.36;30.46
54144;BME280;40050;47.324;18.792;2023-04-21T08:38:11;1003.60;;;23.31;31.28
54144;BME280;40050;47.324;18.792;2023-04-21T08:40:12;1003.67;;;23.48;30.58
54144;BME280;40050;47.324;18.792;2023-04-21T08:42:13;1003.62;;;23.48;29.79
54144;BME280;40050;47.324;18.792;2023-04-21T08:44:15;1003.63;;;23.28;29.90
54144;BME280;40050;47.324;18.792;2023-04-21T08:46:16;1003.61;;;23.31;31.45
54144;BME280;40050;47.324;18.792;2023-04-21T08:48:18;1003.56;;;23.48;31.61
54144;BME280;40050;47.324;18.792;2023-04-21T08:50:20;1003.56;;;23.56;31.31
54144;BME280;40050;47.324;18.792;2023-04-21T08:52:24;1003.59;;;23.68;31.02
54144;BME280;40050;47.324;18.792;2023-04-21T08:54:25;1003.54;;;23.79;30.66
54144;BME280;40050;47.324;18.792;2023-04-21T08:56:26;1003.47;;;23.94;30.49
54144;BME280;40050;47.324;18.792;2023-04-21T08:58:27;1003.45;;;24.12;30.52
54144;BME280;40050;47.324;18.792;2023-04-21T09:00:28;1003.47;;;24.27;30.16
54144;BME280;40050;47.324;18.792;2023-04-21T09:02:29;1003.50;;;24.43;30.24
54144;BME280;40050;47.324;18.792;2023-04-21T09:04:30;1003.45;;;24.64;29.37
54144;BME280;40050;47.324;18.792;2023-04-21T09:06:40;1003.44;;;24.62;28.43
54144;BME280;40050;47.324;18.792;2023-04-21T09:08:41;1003.38;;;24.54;28.83
54144;BME280;40050;47.324;18.792;2023-04-21T09:10:47;1003.34;;;24.51;28.80
54144;BME280;40050;47.324;18.792;2023-04-21T09:12:51;1003.31;;;24.49;28.13
54144;BME280;40050;47.324;18.792;2023-04-21T09:14:52;1003.38;;;24.48;29.98
54144;BME280;40050;47.324;18.792;2023-04-21T09:17:02;1003.39;;;24.61;30.00
54144;BME280;40050;47.324;18.792;2023-04-21T09:19:06;1003.39;;;24.82;29.71
54144;BME280;40050;47.324;18.792;2023-04-21T09:21:14;1003.37;;;24.93;29.23
54144;BME280;40050;47.324;18.792;2023-04-21T09:23:15;1003.33;;;25.02;27.94
54144;BME280;40050;47.324;18.792;2023-04-21T09:25:20;1003.34;;;25.01;28.50
54144;BME280;40050;47.324;18.792;2023-04-21T09:27:21;1003.36;;;25.02;27.89
54144;BME280;40050;47.324;18.792;2023-04-21T09:29:22;1003.32;;;25.09;28.06
54144;BME280;40050;47.324;18.792;2023-04-21T09:31:23;1003.27;;;25.20;28.43
54144;BME280;40050;47.324;18.792;2023-04-21T09:33:24;1003.25;;;25.26;27.94
54144;BME280;40050;47.324;18.792;2023-04-21T09:35:29;1003.13;;;25.22;26.24
54144;BME280;40050;47.324;18.792;2023-04-21T09:37:32;1003.22;;;25.19;27.61
54144;BME280;40050;47.324;18.792;2023-04-21T09:39:33;1003.20;;;25.28;28.36
54144;BME280;40050;47.324;18.792;2023-04-21T09:41:33;1003.08;;;25.25;28.47
54144;BME280;40050;47.324;18.792;2023-04-21T09:43:34;1003.05;;;25.29;27.90
54144;BME280;40050;47.324;18.792;2023-04-21T09:45:35;1003.10;;;25.35;27.91
54144;BME280;40050;47.324;18.792;2023-04-21T09:47:38;1003.04;;;25.20;26.93
54144;BME280;40050;47.324;18.792;2023-04-21T09:49:40;1003.13;;;25.13;26.20
54144;BME280;40050;47.324;18.792;2023-04-21T09:51:41;1003.13;;;24.89;26.76
54144;BME280;40050;47.324;18.792;2023-04-21T09:53:43;1003.16;;;24.81;26.97
54144;BME280;40050;47.324;18.792;2023-04-21T09:55:44;1003.12;;;24.79;27.69
54144;BME280;40050;47.324;18.792;2023-04-21T09:57:47;1003.12;;;24.71;27.53
54144;BME280;40050;47.324;18.792;2023-04-21T09:59:50;1003.09;;;24.71;27.22
54144;BME280;40050;47.324;18.792;2023-04-21T10:01:54;1003.10;;;24.66;27.37
54144;BME280;40050;47.324;18.792;2023-04-21T10:03:55;1003.07;;;24.62;27.79
54144;BME280;40050;47.324;18.792;2023-04-21T10:05:57;1003.08;;;24.66;27.67
54144;BME280;40050;47.324;18.792;2023-04-21T10:07:58;1003.00;;;24.60;27.54
54144;BME280;40050;47.324;18.792;2023-04-21T10:10:02;1003.02;;;24.66;27.59
54144;BME280;40050;47.324;18.792;2023-04-21T10:12:07;1002.95;;;24.69;27.28
54144;BME280;40050;47.324;18.792;2023-04-21T10:16:56;1003.01;;;24.42;26.69
54144;BME280;40050;47.324;18.792;2023-04-21T10:18:57;1003.00;;;24.30;27.01
54144;BME280;40050;47.324;18.792;2023-04-21T10:23:29;1002.91;;;24.21;27.96
54144;BME280;40050;47.324;18.792;2023-04-21T10:25:30;1002.94;;;24.19;28.08
54144;BME280;40050;47.324;18.792;2023-04-21T10:27:35;1002.93;;;24.23;28.00
54144;BME280;40050;47.324;18.792;2023-04-21T10:29:37;1002.89;;;24.28;27.68
54144;BME280;40050;47.324;18.792;2023-04-21T10:31:51;1002.96;;;24.37;28.26
54144;BME280;40050;47.324;18.792;2023-04-21T10:36:05;1002.84;;;24.34;27.56
54144;BME280;40050;47.324;18.792;2023-04-21T10:38:06;1002.85;;;24.30;28.42
54144;BME280;40050;47.324;18.792;2023-04-21T10:40:52;1002.90;;;24.29;29.18
54144;BME280;40050;47.324;18.792;2023-04-21T10:42:21;1002.86;;;24.36;29.26
54144;BME280;40050;47.324;18.792;2023-04-21T10:44:23;1002.87;;;24.37;29.35
54144;BME280;40050;47.324;18.792;2023-04-21T10:46:30;1002.75;;;24.36;27.64
54144;BME280;40050;47.324;18.792;2023-04-21T10:48:35;1002.78;;;24.17;27.68
54144;BME280;40050;47.324;18.792;2023-04-21T10:50:36;1002.72;;;24.20;27.58
54144;BME280;40050;47.324;18.792;2023-04-21T10:52:37;1002.71;;;24.22;27.83
54144;BME280;40050;47.324;18.792;2023-04-21T10:54:42;1002.67;;;24.25;27.69
54144;BME280;40050;47.324;18.792;2023-04-21T10:56:43;1002.66;;;24.25;27.96
54144;BME280;40050;47.324;18.792;2023-04-21T10:58:44;1002.55;;;24.25;27.78